Time;durP1;ratioP1;P1;durP2;ratioP2;P2;SDS_P1;SDS_P2;PMS_P1;PMS_P2;Temp;Humidity;BMP_temperature;BMP_pressure;BME280_temperature;BME280_humidity;BME280_pressure;Samples;Min_cycle;Max_cycle;Signal;HPM_P1;HPM_P2
2021/11/20 00:02:00;;;;;;;22.85;11.50;;;9.70;99.90;;;;;;4993181;28;20034;-50
2021/11/20 00:04:26;;;;;;;23.98;10.68;;;9.70;99.90;;;;;;4993224;28;20062;-50
2021/11/20 00:06:54;;;;;;;26.02;11.50;;;9.70;99.90;;;;;;4992956;28;20598;-50
2021/11/20 00:09:22;;;;;;;20.20;10.77;;;9.70;99.90;;;;;;4993073;28;20089;-48
2021/11/20 00:11:51;;;;;;;34.03;11.93;;;9.70;99.90;;;;;;4992895;28;20500;-50
2021/11/20 00:14:18;;;;;;;23.33;12.27;;;9.70;99.90;;;;;;4992582;28;20277;-50
2021/11/20 00:16:46;;;;;;;24.55;13.25;;;9.70;99.90;;;;;;4993156;28;20043;-49
2021/11/20 00:19:12;;;;;;;18.80;12.98;;;9.70;99.90;;;;;;4992818;28;20157;-50
2021/11/20 00:21:46;;;;;;;27.63;13.90;;;9.80;99.90;;;;;;4992750;28;20042;-49
2021/11/20 00:24:25;;;;;;;30.65;13.88;;;9.80;99.90;;;;;;4992801;28;20183;-51
2021/11/20 00:26:52;;;;;;;26.15;12.05;;;9.80;99.90;;;;;;4992734;28;20125;-49
2021/11/20 00:29:20;;;;;;;27.63;12.30;;;9.80;99.90;;;;;;4993060;28;20121;-48
2021/11/20 00:31:58;;;;;;;24.15;13.25;;;9.80;99.90;;;;;;4993196;28;20377;-50
2021/11/20 00:34:29;;;;;;;19.85;12.30;;;9.90;99.90;;;;;;4992862;28;20141;-51
2021/11/20 00:36:55;;;;;;;26.58;13.57;;;9.90;99.90;;;;;;4992581;28;20046;-51
2021/11/20 00:39:24;;;;;;;24.80;12.20;;;9.80;99.90;;;;;;4992706;28;20090;-51
2021/11/20 00:41:50;;;;;;;28.63;13.88;;;9.90;99.90;;;;;;4992917;28;20038;-51
2021/11/20 00:44:17;;;;;;;30.48;12.80;;;9.90;99.90;;;;;;4992820;28;20392;-49
2021/11/20 00:46:44;;;;;;;23.35;12.43;;;9.90;99.90;;;;;;4991565;28;20038;-49
2021/11/20 00:49:10;;;;;;;27.85;14.20;;;9.90;99.90;;;;;;4992750;28;20038;-52
2021/11/20 00:51:36;;;;;;;24.25;12.57;;;9.90;99.90;;;;;;4976818;28;20050;-50
2021/11/20 00:54:03;;;;;;;34.17;14.10;;;9.90;99.90;;;;;;4996248;28;20035;-49
2021/11/20 00:56:30;;;;;;;26.65;12.70;;;9.90;99.90;;;;;;4996410;28;20081;-52
2021/11/20 00:58:56;;;;;;;24.60;13.20;;;9.90;99.90;;;;;;4996275;28;20042;-49
2021/11/20 01:01:29;;;;;;;25.50;12.30;;;9.90;99.90;;;;;;4996289;28;20088;-49
2021/11/20 01:03:55;;;;;;;27.00;13.50;;;9.90;99.90;;;;;;4996029;28;20073;-52
2021/11/20 01:06:21;;;;;;;24.85;13.85;;;9.90;99.90;;;;;;4996056;28;20081;-51
2021/11/20 01:08:49;;;;;;;25.65;12.98;;;9.90;99.90;;;;;;4996265;28;20053;-49
2021/11/20 01:11:33;;;;;;;25.83;12.18;;;9.90;99.90;;;;;;4996154;28;20039;-52
2021/11/20 01:14:01;;;;;;;26.05;12.93;;;9.90;99.90;;;;;;4996017;28;20038;-51
2021/11/20 01:16:28;;;;;;;30.30;13.38;;;9.90;99.90;;;;;;4996020;28;20053;-52
2021/11/20 01:18:56;;;;;;;28.98;12.93;;;9.90;99.90;;;;;;4995408;28;20081;-52
2021/11/20 01:21:22;;;;;;;29.98;12.80;;;10.00;99.90;;;;;;4996098;28;20474;-49
2021/11/20 01:23:49;;;;;;;19.60;12.60;;;10.00;99.90;;;;;;4995887;28;20126;-52
2021/11/20 01:26:17;;;;;;;26.95;12.90;;;10.10;99.90;;;;;;4995692;28;20369;-53
2021/11/20 01:28:44;;;;;;;28.40;13.07;;;10.10;99.90;;;;;;4995972;28;20129;-52
2021/11/20 01:31:12;;;;;;;26.65;12.38;;;10.00;99.90;;;;;;4995889;28;20042;-50
2021/11/20 01:33:40;;;;;;;27.63;12.95;;;10.00;99.90;;;;;;4995638;28;20512;-50
2021/11/20 01:36:07;;;;;;;25.33;12.63;;;10.00;99.90;;;;;;4995855;28;20358;-51
2021/11/20 01:38:34;;;;;;;24.23;12.40;;;10.00;99.90;;;;;;4995492;28;20042;-51
2021/11/20 01:41:02;;;;;;;27.83;13.60;;;10.00;99.90;;;;;;4995591;28;20078;-51
2021/11/20 01:43:27;;;;;;;31.38;13.20;;;10.00;99.90;;;;;;4995159;28;20520;-48
2021/11/20 01:45:58;;;;;;;29.15;13.48;;;10.00;99.90;;;;;;4995394;28;20173;-51
2021/11/20 01:49:02;;;;;;;25.80;12.70;;;10.00;99.90;;;;;;4995272;28;20042;-52
2021/11/20 01:51:32;;;;;;;30.58;13.25;;;10.00;99.90;;;;;;4995573;28;20034;-50
2021/11/20 01:54:13;;;;;;;30.70;14.38;;;9.90;99.90;;;;;;4995238;28;20038;-50
2021/11/20 01:56:38;;;;;;;29.27;13.55;;;10.00;99.90;;;;;;4995084;28;20125;-50
2021/11/20 01:59:08;;;;;;;25.85;12.95;;;10.00;99.90;;;;;;4995029;28;20125;-51
2021/11/20 02:01:57;;;;;;;20.50;12.30;;;10.00;99.90;;;;;;4995158;28;20049;-53
2021/11/20 02:04:45;;;;;;;30.52;14.43;;;10.00;99.90;;;;;;4953991;29;20043;-51
2021/11/20 02:07:33;;;;;;;28.67;12.95;;;10.00;99.90;;;;;;4954315;29;20083;-52
2021/11/20 02:10:17;;;;;;;23.40;13.35;;;9.90;99.90;;;;;;4953982;29;20047;-51
2021/11/20 02:12:54;;;;;;;28.35;13.93;;;9.90;99.90;;;;;;4938172;29;20485;-52
2021/11/20 02:15:28;;;;;;;24.20;12.73;;;9.90;99.90;;;;;;4954026;29;20051;-53
2021/11/20 02:17:56;;;;;;;27.52;12.82;;;9.90;99.90;;;;;;4953431;29;20386;-53
2021/11/20 02:20:30;;;;;;;31.00;14.35;;;9.90;99.90;;;;;;4954027;29;20448;-51
2021/11/20 02:22:56;;;;;;;30.75;14.55;;;9.90;99.90;;;;;;4953847;28;20141;-52
2021/11/20 02:25:22;;;;;;;30.23;13.95;;;9.90;99.90;;;;;;4953746;29;20569;-51
2021/11/20 02:27:51;;;;;;;26.73;14.85;;;9.90;99.90;;;;;;4953672;29;20051;-51
2021/11/20 02:30:41;;;;;;;27.55;14.63;;;9.90;99.90;;;;;;4953813;29;20446;-50
2021/11/20 02:33:12;;;;;;;21.42;13.30;;;9.90;99.90;;;;;;4953783;29;20130;-51
2021/11/20 02:36:07;;;;;;;26.60;13.38;;;9.90;99.90;;;;;;4953526;29;20054;-51
2021/11/20 02:38:40;;;;;;;29.15;14.57;;;9.90;99.90;;;;;;4896471;29;20048;-49
2021/11/20 02:41:12;;;;;;;28.88;13.32;;;9.90;99.90;;;;;;4909466;29;20083;-51
2021/11/20 02:43:40;;;;;;;22.52;12.55;;;9.90;99.90;;;;;;4934190;29;20051;-50
2021/11/20 02:46:09;;;;;;;25.98;13.55;;;9.90;99.90;;;;;;4934238;29;20394;-51
2021/11/20 02:48:35;;;;;;;25.83;14.00;;;9.80;99.90;;;;;;4934160;29;20052;-51
2021/11/20 02:51:08;;;;;;;29.23;14.82;;;9.80;99.90;;;;;;4934172;29;20505;-52
2021/11/20 02:53:38;;;;;;;25.80;13.55;;;9.80;99.90;;;;;;4934287;29;20131;-52
2021/11/20 02:56:06;;;;;;;23.63;13.13;;;10.00;99.90;;;;;;4933897;29;20051;-52
2021/11/20 02:58:33;;;;;;;31.10;13.55;;;9.90;99.90;;;;;;4934131;29;20059;-52
2021/11/20 03:01:03;;;;;;;28.27;14.48;;;10.00;99.90;;;;;;4934016;29;20106;-53
2021/11/20 03:03:30;;;;;;;25.05;14.00;;;9.90;99.90;;;;;;4933984;29;20068;-52
2021/11/20 03:05:55;;;;;;;26.58;13.70;;;9.90;99.90;;;;;;4933766;29;20560;-53
2021/11/20 03:08:21;;;;;;;25.88;13.93;;;10.00;99.90;;;;;;4933723;29;20090;-53
2021/11/20 03:10:48;;;;;;;22.60;13.88;;;9.90;99.90;;;;;;4933888;29;20122;-53
2021/11/20 03:13:15;;;;;;;27.38;13.90;;;10.00;99.90;;;;;;4933228;29;20158;-52
2021/11/20 03:15:41;;;;;;;30.40;14.32;;;10.10;99.90;;;;;;4982819;28;20058;-52
2021/11/20 03:18:08;;;;;;;24.63;13.85;;;10.10;99.90;;;;;;4993677;28;20061;-53
2021/11/20 03:20:35;;;;;;;29.52;14.80;;;10.20;99.90;;;;;;4993682;28;20095;-52
2021/11/20 03:23:12;;;;;;;25.58;13.80;;;10.20;99.90;;;;;;4993515;28;20061;-52
2021/11/20 03:25:38;;;;;;;29.00;15.23;;;10.20;99.90;;;;;;4992697;28;20045;-52
2021/11/20 03:28:04;;;;;;;23.58;14.07;;;10.30;99.90;;;;;;4993479;28;20046;-51
2021/11/20 03:30:30;;;;;;;24.27;14.73;;;10.30;99.90;;;;;;4993689;28;20038;-50
2021/11/20 03:32:56;;;;;;;26.45;14.07;;;10.30;99.90;;;;;;4993373;28;20038;-52
2021/11/20 03:35:22;;;;;;;26.60;15.25;;;10.30;99.90;;;;;;4993401;28;20080;-51
2021/11/20 03:37:49;;;;;;;26.75;14.02;;;10.40;99.90;;;;;;4993309;28;20030;-51
2021/11/20 03:40:16;;;;;;;31.52;15.43;;;10.30;99.90;;;;;;4993077;28;20038;-52
2021/11/20 03:42:43;;;;;;;23.63;13.48;;;10.30;99.90;;;;;;4993385;28;20039;-52
2021/11/20 03:45:09;;;;;;;26.70;14.90;;;10.30;99.90;;;;;;4993193;28;20350;-53
2021/11/20 03:47:36;;;;;;;22.60;13.93;;;10.30;99.90;;;;;;4993407;28;20069;-52
2021/11/20 03:50:03;;;;;;;22.90;14.55;;;10.30;99.90;;;;;;4993215;28;20030;-53
2021/11/20 03:52:29;;;;;;;27.77;13.02;;;10.40;99.90;;;;;;4993071;28;20399;-53
2021/11/20 03:54:55;;;;;;;23.42;13.70;;;10.40;99.90;;;;;;4993277;28;20042;-52
2021/11/20 03:57:22;;;;;;;26.30;14.27;;;10.40;99.90;;;;;;4993154;28;20129;-52
2021/11/20 03:59:49;;;;;;;24.90;14.10;;;10.40;99.90;;;;;;4993234;28;20046;-52
2021/11/20 04:02:15;;;;;;;21.20;13.85;;;10.40;99.90;;;;;;4992748;28;20489;-52
2021/11/20 04:04:41;;;;;;;28.60;14.40;;;10.40;99.90;;;;;;4992899;28;20078;-52
2021/11/20 04:07:07;;;;;;;23.83;14.95;;;10.40;99.90;;;;;;4992843;28;20069;-53
2021/11/20 04:09:33;;;;;;;26.45;15.38;;;10.40;99.90;;;;;;4993093;28;20063;-53
2021/11/20 04:11:59;;;;;;;23.55;13.90;;;10.40;99.90;;;;;;4992842;28;20050;-52
2021/11/20 04:14:26;;;;;;;27.15;15.23;;;10.40;99.90;;;;;;4993111;28;20124;-53
2021/11/20 04:16:53;;;;;;;25.65;14.38;;;10.40;99.90;;;;;;4991862;28;20053;-51
2021/11/20 04:19:19;;;;;;;37.08;14.18;;;10.50;99.90;;;;;;4992900;28;20062;-51
2021/11/20 04:21:46;;;;;;;25.77;14.75;;;10.50;99.90;;;;;;4993091;28;20046;-53
2021/11/20 04:24:12;;;;;;;21.23;13.80;;;10.50;99.90;;;;;;4993224;28;20038;-52
2021/11/20 04:26:39;;;;;;;23.30;13.95;;;10.50;99.90;;;;;;4995327;28;20038;-53
2021/11/20 04:29:05;;;;;;;24.65;15.00;;;10.50;99.90;;;;;;4996785;28;20045;-52
2021/11/20 04:31:31;;;;;;;23.02;15.27;;;10.50;99.90;;;;;;4996800;28;20050;-52
2021/11/20 04:33:58;;;;;;;18.13;12.93;;;10.50;99.90;;;;;;4996913;28;20104;-53
2021/11/20 04:36:24;;;;;;;27.92;14.43;;;10.50;99.90;;;;;;4996788;28;20045;-53
2021/11/20 04:38:50;;;;;;;30.58;15.18;;;10.50;99.90;;;;;;4996423;28;20126;-53
2021/11/20 04:41:17;;;;;;;23.02;14.25;;;10.50;99.90;;;;;;4996452;28;20038;-53
2021/11/20 04:43:44;;;;;;;26.67;14.88;;;10.50;99.90;;;;;;4996594;28;20039;-52
2021/11/20 04:46:11;;;;;;;24.70;15.20;;;10.50;99.90;;;;;;4996819;28;20038;-53
2021/11/20 04:48:38;;;;;;;31.05;15.68;;;10.50;99.90;;;;;;4996378;28;20042;-53
2021/11/20 04:51:05;;;;;;;27.90;14.75;;;10.50;99.90;;;;;;4996486;28;20177;-52
2021/11/20 04:53:32;;;;;;;29.02;14.40;;;10.50;99.90;;;;;;4996439;28;20053;-50
2021/11/20 04:55:58;;;;;;;27.23;15.50;;;10.50;99.90;;;;;;4996538;28;20138;-51
2021/11/20 04:58:25;;;;;;;28.67;15.68;;;10.60;99.90;;;;;;4996503;28;20544;-51
2021/11/20 05:00:53;;;;;;;26.95;15.30;;;10.50;99.90;;;;;;4996201;28;20031;-52
2021/11/20 05:03:20;;;;;;;24.50;15.45;;;10.50;99.90;;;;;;4996429;28;20042;-52
2021/11/20 05:05:48;;;;;;;23.17;15.32;;;10.60;99.90;;;;;;4996294;28;20109;-51
2021/11/20 05:08:14;;;;;;;20.67;13.77;;;10.50;99.90;;;;;;4996106;28;20052;-52
2021/11/20 05:10:41;;;;;;;24.85;13.88;;;10.50;99.90;;;;;;4996079;28;20487;-52
2021/11/20 05:13:07;;;;;;;22.73;15.27;;;10.50;99.90;;;;;;4996101;28;20046;-51
2021/11/20 05:15:36;;;;;;;24.88;14.80;;;10.50;99.90;;;;;;4995932;28;20045;-51
2021/11/20 05:18:02;;;;;;;24.73;14.27;;;10.50;99.90;;;;;;4995670;28;20060;-50
2021/11/20 05:20:28;;;;;;;26.65;14.25;;;10.50;99.90;;;;;;4995866;28;20046;-52
2021/11/20 05:22:54;;;;;;;20.08;13.63;;;10.60;99.90;;;;;;4995816;28;20044;-52
2021/11/20 05:25:21;;;;;;;21.75;13.52;;;10.50;99.90;;;;;;4995913;28;20126;-52
2021/11/20 05:27:52;;;;;;;21.98;13.65;;;10.50;99.90;;;;;;4995774;28;20039;-52
2021/11/20 05:30:22;;;;;;;23.38;14.20;;;10.50;99.90;;;;;;4995925;28;20038;-50
2021/11/20 05:32:49;;;;;;;27.63;14.45;;;10.50;99.90;;;;;;4994561;28;20093;-52
2021/11/20 05:35:17;;;;;;;27.73;14.00;;;10.50;99.90;;;;;;4995757;28;20038;-53
2021/11/20 05:37:44;;;;;;;19.60;13.70;;;10.50;99.90;;;;;;4995241;28;20046;-50
2021/11/20 05:40:13;;;;;;;22.50;13.75;;;10.40;99.90;;;;;;4995834;28;20035;-50
2021/11/20 05:42:46;;;;;;;21.80;13.60;;;10.40;99.90;;;;;;4995588;28;20042;-49
2021/11/20 05:45:13;;;;;;;24.58;14.23;;;10.40;99.90;;;;;;4995400;28;20050;-52
2021/11/20 05:47:39;;;;;;;21.00;13.35;;;10.40;99.90;;;;;;4995276;28;20046;-51
2021/11/20 05:50:06;;;;;;;25.75;13.55;;;10.40;99.90;;;;;;4995161;28;20484;-51
2021/11/20 05:52:32;;;;;;;26.30;13.30;;;10.40;99.90;;;;;;4995329;28;20504;-51
2021/11/20 05:54:57;;;;;;;19.77;14.05;;;10.30;99.90;;;;;;4995547;28;20049;-50
2021/11/20 05:57:23;;;;;;;22.95;13.52;;;10.30;99.90;;;;;;4995063;28;20038;-50
2021/11/20 05:59:49;;;;;;;23.98;14.38;;;10.40;99.90;;;;;;4995122;28;20038;-54
2021/11/20 06:02:15;;;;;;;27.85;14.00;;;10.40;99.90;;;;;;4994957;28;20045;-53
2021/11/20 06:04:41;;;;;;;26.38;14.05;;;10.40;99.90;;;;;;4994986;28;20514;-51
2021/11/20 06:07:11;;;;;;;24.45;14.60;;;10.40;99.90;;;;;;4995232;28;20042;-51
2021/11/20 06:09:37;;;;;;;23.75;13.93;;;10.40;99.90;;;;;;4995047;28;20443;-49
2021/11/20 06:12:03;;;;;;;21.75;14.35;;;10.40;99.90;;;;;;4994974;28;20077;-52
2021/11/20 06:14:28;;;;;;;18.13;14.38;;;10.40;99.90;;;;;;4994893;28;20053;-50
2021/11/20 06:16:54;;;;;;;22.52;13.82;;;10.40;99.90;;;;;;4994977;28;20045;-52
2021/11/20 06:19:20;;;;;;;21.50;14.25;;;10.50;99.90;;;;;;4994589;28;20161;-52
2021/11/20 06:21:45;;;;;;;25.80;14.38;;;10.50;99.90;;;;;;4994859;28;20035;-48
2021/11/20 06:24:11;;;;;;;21.50;14.48;;;10.50;99.90;;;;;;4994996;28;20061;-53
2021/11/20 06:26:37;;;;;;;22.70;13.70;;;10.50;99.90;;;;;;4995050;28;20045;-51
2021/11/20 06:29:04;;;;;;;27.45;14.90;;;10.50;99.90;;;;;;4994597;28;20131;-51
2021/11/20 06:31:30;;;;;;;21.30;14.15;;;10.60;99.90;;;;;;4994606;28;20432;-52
2021/11/20 06:33:58;;;;;;;25.35;14.88;;;10.60;99.90;;;;;;4994748;28;20108;-51
2021/11/20 06:36:24;;;;;;;26.52;14.65;;;10.60;99.90;;;;;;4994608;28;20104;-53
2021/11/20 06:38:50;;;;;;;23.35;14.52;;;10.60;99.90;;;;;;4994662;28;20089;-53
2021/11/20 06:41:16;;;;;;;18.48;13.93;;;10.60;99.90;;;;;;4994489;28;20041;-51
2021/11/20 06:43:42;;;;;;;20.73;13.48;;;10.60;99.90;;;;;;4994466;28;20034;-52
2021/11/20 06:46:11;;;;;;;21.05;13.93;;;10.60;99.90;;;;;;4993867;28;20077;-52
2021/11/20 06:48:37;;;;;;;20.80;14.50;;;10.60;99.90;;;;;;4991786;28;20077;-52
2021/11/20 06:51:04;;;;;;;22.48;14.30;;;10.60;99.90;;;;;;4993998;28;20169;-53
2021/11/20 06:53:30;;;;;;;24.35;14.25;;;10.60;99.90;;;;;;4994024;28;20502;-52
2021/11/20 06:55:56;;;;;;;19.80;15.25;;;10.70;99.90;;;;;;4994325;28;20392;-51
2021/11/20 06:58:52;;;;;;;27.10;16.10;;;10.70;99.90;;;;;;4993743;28;20042;-52
2021/11/20 07:01:13;;;;;;;18.70;14.43;;;10.70;99.90;;;;;;4993784;28;20038;-52
2021/11/20 07:03:57;;;;;;;23.52;15.98;;;10.60;99.90;;;;;;4993675;28;20432;-51
2021/11/20 07:06:51;;;;;;;24.88;15.32;;;10.60;99.90;;;;;;4993538;28;20487;-51
2021/11/20 07:09:17;;;;;;;20.73;15.95;;;10.60;99.90;;;;;;4991509;28;20133;-53
2021/11/20 07:11:43;;;;;;;22.05;16.17;;;10.60;99.90;;;;;;4993813;28;20082;-50
2021/11/20 07:14:09;;;;;;;22.77;15.10;;;10.60;99.90;;;;;;4992184;28;20074;-52
2021/11/20 07:16:36;;;;;;;22.02;14.75;;;10.60;99.90;;;;;;4993474;28;20046;-51
2021/11/20 07:19:02;;;;;;;19.40;15.13;;;10.60;99.90;;;;;;4993161;28;20520;-50
2021/11/20 07:21:28;;;;;;;19.92;15.13;;;10.60;99.90;;;;;;4993310;28;20549;-53
2021/11/20 07:23:57;;;;;;;19.15;14.60;;;10.60;99.90;;;;;;4993530;28;20106;-52
2021/11/20 07:26:24;;;;;;;20.27;14.15;;;10.60;99.90;;;;;;4993555;28;20125;-54
2021/11/20 07:28:51;;;;;;;22.17;15.10;;;10.60;99.90;;;;;;4993301;28;20042;-52
2021/11/20 07:31:17;;;;;;;19.95;14.85;;;10.60;99.90;;;;;;4993266;28;20080;-50
2021/11/20 07:33:43;;;;;;;16.83;12.43;;;10.60;99.90;;;;;;4993482;28;20078;-52
2021/11/20 07:36:10;;;;;;;17.35;13.68;;;10.60;99.90;;;;;;4992876;28;20121;-52
2021/11/20 07:38:44;;;;;;;20.02;14.02;;;10.60;99.90;;;;;;4993107;28;20049;-53
2021/11/20 07:41:10;;;;;;;19.10;13.90;;;10.60;99.90;;;;;;4993260;28;20506;-51
2021/11/20 07:43:37;;;;;;;17.95;14.02;;;10.60;99.90;;;;;;4993104;28;20030;-52
2021/11/20 07:46:06;;;;;;;18.38;14.07;;;10.60;99.90;;;;;;4992922;28;20069;-50
2021/11/20 07:48:34;;;;;;;18.67;12.70;;;10.60;99.90;;;;;;4992875;28;20056;-53
2021/11/20 07:51:00;;;;;;;18.10;13.70;;;10.60;99.90;;;;;;4993085;28;20369;-52
2021/11/20 07:53:26;;;;;;;18.98;13.40;;;10.60;99.90;;;;;;4993062;28;20117;-52
2021/11/20 07:55:53;;;;;;;17.73;13.38;;;10.60;99.90;;;;;;4992906;28;20126;-52
2021/11/20 07:58:19;;;;;;;19.15;14.18;;;10.60;99.90;;;;;;4992927;28;20038;-51
2021/11/20 08:00:45;;;;;;;16.42;13.98;;;10.60;99.90;;;;;;4992556;28;20081;-53
2021/11/20 08:03:12;;;;;;;19.77;14.32;;;10.60;99.90;;;;;;4991453;28;20550;-52
2021/11/20 08:05:39;;;;;;;18.33;14.50;;;10.60;99.90;;;;;;4993040;28;20062;-53
2021/11/20 08:08:06;;;;;;;21.52;14.23;;;10.60;99.90;;;;;;4992791;28;20114;-54
2021/11/20 08:10:33;;;;;;;23.35;14.65;;;10.60;99.90;;;;;;4992898;28;20038;-52
2021/11/20 08:12:59;;;;;;;23.15;14.70;;;10.60;99.90;;;;;;4992901;28;20038;-53
2021/11/20 08:15:26;;;;;;;28.10;15.38;;;10.60;99.90;;;;;;4992515;28;20117;-53
2021/11/20 08:17:52;;;;;;;20.52;15.38;;;10.60;99.90;;;;;;4992554;28;20073;-52
2021/11/20 08:20:23;;;;;;;21.73;15.57;;;10.60;99.90;;;;;;5007931;28;20049;-53
2021/11/20 08:22:48;;;;;;;20.30;15.85;;;10.70;99.90;;;;;;4992802;28;20153;-52
2021/11/20 08:25:17;;;;;;;17.95;15.73;;;10.70;99.90;;;;;;4992663;28;20540;-51
2021/11/20 08:27:43;;;;;;;20.13;15.73;;;10.70;99.90;;;;;;4992784;28;20547;-51
2021/11/20 08:30:12;;;;;;;22.40;16.98;;;10.70;99.90;;;;;;4992421;28;20046;-53
2021/11/20 08:32:38;;;;;;;20.17;16.30;;;10.70;99.90;;;;;;4992334;28;20046;-52
2021/11/20 08:35:05;;;;;;;21.83;16.27;;;10.70;99.90;;;;;;4992653;28;20042;-52
2021/11/20 08:37:33;;;;;;;20.38;16.73;;;10.70;99.90;;;;;;4992314;28;20050;-53
2021/11/20 08:39:58;;;;;;;20.40;16.45;;;10.70;99.90;;;;;;4992246;28;20489;-51
2021/11/20 08:42:25;;;;;;;24.08;16.73;;;10.80;99.90;;;;;;4992367;28;20050;-52
2021/11/20 08:44:51;;;;;;;18.88;16.33;;;10.70;99.90;;;;;;4992252;28;20038;-52
2021/11/20 08:47:17;;;;;;;21.63;18.05;;;10.70;99.90;;;;;;4991483;28;20046;-52
2021/11/20 08:49:43;;;;;;;20.17;17.05;;;10.70;99.90;;;;;;4992453;28;20510;-50
2021/11/20 08:52:09;;;;;;;23.58;18.67;;;10.70;99.90;;;;;;4992365;28;20473;-53
2021/11/20 08:54:35;;;;;;;22.67;17.35;;;10.70;99.90;;;;;;4992313;28;20061;-53
2021/11/20 08:57:02;;;;;;;21.80;17.45;;;10.70;99.90;;;;;;4992277;28;20049;-52
2021/11/20 08:59:29;;;;;;;22.65;17.95;;;10.70;99.90;;;;;;4992480;28;20038;-51
2021/11/20 09:01:58;;;;;;;24.83;18.38;;;10.80;99.90;;;;;;4992410;28;20035;-53
2021/11/20 09:04:39;;;;;;;23.48;17.95;;;10.80;99.90;;;;;;4991258;28;20042;-53
2021/11/20 09:07:24;;;;;;;27.35;19.23;;;10.80;99.90;;;;;;4992084;28;20038;-52
2021/11/20 09:09:59;;;;;;;22.90;18.77;;;10.80;99.90;;;;;;4992199;28;20046;-50
2021/11/20 09:12:57;;;;;;;24.40;17.85;;;10.80;99.90;;;;;;4994325;28;20132;-53
2021/11/20 09:15:55;;;;;;;20.08;17.55;;;10.80;99.90;;;;;;4954849;29;20090;-54
2021/11/20 09:18:21;;;;;;;25.13;18.27;;;10.80;99.90;;;;;;4897288;29;20056;-52
2021/11/20 09:20:51;;;;;;;24.95;18.92;;;10.70;99.90;;;;;;4897720;29;20060;-53
2021/11/20 09:23:18;;;;;;;25.73;20.13;;;10.70;99.90;;;;;;4897760;29;20088;-53
2021/11/20 09:25:44;;;;;;;23.35;18.75;;;10.80;99.90;;;;;;4897505;29;20158;-51
2021/11/20 09:28:12;;;;;;;27.55;18.88;;;10.80;99.90;;;;;;4897535;29;20053;-52
2021/11/20 09:30:42;;;;;;;27.73;20.08;;;10.80;99.90;;;;;;4897507;29;20411;-53
2021/11/20 09:33:08;;;;;;;25.38;19.60;;;10.80;99.90;;;;;;4897383;29;20053;-50
2021/11/20 09:35:34;;;;;;;27.50;19.55;;;10.80;99.90;;;;;;4897415;29;20088;-53
2021/11/20 09:38:00;;;;;;;25.95;19.15;;;10.80;99.90;;;;;;4897252;29;20051;-53
2021/11/20 09:40:29;;;;;;;24.27;18.95;;;10.80;99.90;;;;;;4897367;29;20175;-53
2021/11/20 09:42:59;;;;;;;23.55;19.17;;;10.80;99.90;;;;;;4897329;29;20139;-51
2021/11/20 09:45:33;;;;;;;23.35;18.80;;;10.80;99.90;;;;;;4897251;29;20130;-51
2021/11/20 09:48:09;;;;;;;27.98;19.20;;;10.80;99.90;;;;;;4897038;29;20104;-53
2021/11/20 09:51:04;;;;;;;23.98;18.42;;;10.80;99.90;;;;;;4897167;29;20135;-53
2021/11/20 09:53:29;;;;;;;26.92;19.85;;;10.80;99.90;;;;;;4932238;28;20051;-52
2021/11/20 09:56:04;;;;;;;22.90;19.33;;;10.80;99.90;;;;;;4994858;28;20037;-53
2021/11/20 09:58:42;;;;;;;25.70;19.73;;;10.80;99.90;;;;;;4994944;28;20041;-49
2021/11/20 10:01:44;;;;;;;25.50;19.13;;;10.80;99.90;;;;;;4994786;28;20077;-53
2021/11/20 10:04:33;;;;;;;23.33;18.67;;;10.80;99.90;;;;;;4994741;28;20038;-53
2021/11/20 10:07:11;;;;;;;26.93;20.37;;;10.80;99.90;;;;;;4995160;28;20080;-51
2021/11/20 10:09:44;;;;;;;24.52;19.85;;;10.80;99.90;;;;;;4994812;28;20053;-53
2021/11/20 10:12:15;;;;;;;22.70;18.45;;;10.80;99.90;;;;;;4994566;28;20078;-52
2021/11/20 10:14:45;;;;;;;23.02;19.48;;;10.80;99.90;;;;;;4994529;28;20042;-52
2021/11/20 10:17:32;;;;;;;22.65;19.35;;;10.80;99.90;;;;;;4994676;28;20042;-50
2021/11/20 10:20:21;;;;;;;26.73;19.85;;;10.80;99.90;;;;;;4994380;28;20108;-53
2021/11/20 10:23:11;;;;;;;25.92;20.70;;;10.80;99.90;;;;;;4994157;28;20543;-51
2021/11/20 10:25:48;;;;;;;23.90;19.67;;;10.80;99.90;;;;;;4994534;28;20038;-53
2021/11/20 10:28:50;;;;;;;24.15;18.70;;;10.90;99.90;;;;;;4994339;28;20623;-52
2021/11/20 10:31:23;;;;;;;27.42;20.48;;;10.80;99.90;;;;;;4994308;28;20046;-52
2021/11/20 10:34:19;;;;;;;25.90;21.08;;;10.80;99.90;;;;;;4994623;28;20396;-52
2021/11/20 10:36:47;;;;;;;25.98;20.20;;;10.80;99.90;;;;;;4994579;28;20391;-52
2021/11/20 10:39:33;;;;;;;25.45;20.95;;;10.80;99.90;;;;;;4994156;28;20034;-52
2021/11/20 10:42:01;;;;;;;26.08;20.55;;;10.80;99.90;;;;;;4953043;29;20095;-52
2021/11/20 10:44:41;;;;;;;24.15;20.70;;;10.80;99.90;;;;;;4953276;29;20469;-52
2021/11/20 10:47:13;;;;;;;24.75;21.30;;;10.80;99.90;;;;;;4953338;29;20119;-51
2021/11/20 10:50:01;;;;;;;26.42;22.45;;;10.80;99.90;;;;;;4953108;29;20513;-51
2021/11/20 10:53:03;;;;;;;24.38;21.20;;;10.90;99.90;;;;;;4953105;29;20059;-52
2021/11/20 10:55:45;;;;;;;25.48;21.30;;;10.80;99.90;;;;;;4953223;29;20074;-52
2021/11/20 10:58:26;;;;;;;26.33;21.80;;;10.90;99.90;;;;;;4952842;29;20054;-50
2021/11/20 11:01:11;;;;;;;28.10;22.00;;;10.90;99.90;;;;;;4936920;29;20401;-53
2021/11/20 11:03:38;;;;;;;28.80;21.45;;;11.00;99.90;;;;;;4952798;29;20375;-53
2021/11/20 11:06:41;;;;;;;27.83;22.42;;;10.90;99.90;;;;;;4952762;29;20054;-53
2021/11/20 11:09:20;;;;;;;31.15;22.70;;;10.90;99.90;;;;;;4952552;29;20107;-52
2021/11/20 11:12:01;;;;;;;27.02;22.25;;;10.80;99.90;;;;;;4952768;29;20125;-53
2021/11/20 11:15:03;;;;;;;27.95;23.77;;;10.80;99.90;;;;;;4952511;29;20050;-53
2021/11/20 11:18:04;;;;;;;30.80;24.83;;;10.80;99.90;;;;;;4952480;29;20043;-50
2021/11/20 11:21:07;;;;;;;28.02;24.20;;;10.80;99.90;;;;;;4933212;29;20110;-53
2021/11/20 11:24:00;;;;;;;34.88;24.48;;;10.70;99.90;;;;;;4933342;29;20542;-52
2021/11/20 11:26:28;;;;;;;32.60;26.02;;;10.70;99.90;;;;;;4933375;29;20051;-52
2021/11/20 11:28:59;;;;;;;32.72;24.83;;;10.70;99.90;;;;;;4933085;29;20497;-52
2021/11/20 11:31:39;;;;;;;32.55;24.70;;;10.70;99.90;;;;;;4933064;29;20047;-52
2021/11/20 11:34:15;;;;;;;33.22;25.45;;;10.70;99.90;;;;;;4932799;29;20043;-52
2021/11/20 11:36:48;;;;;;;34.00;26.50;;;10.70;99.90;;;;;;4933069;29;20387;-53
2021/11/20 11:39:33;;;;;;;37.15;26.42;;;10.60;99.90;;;;;;4933118;29;20066;-52
2021/11/20 11:42:26;;;;;;;34.72;24.85;;;10.60;99.90;;;;;;4933064;29;20051;-52
2021/11/20 11:44:57;;;;;;;39.70;27.42;;;10.60;99.90;;;;;;4933004;29;20175;-52
2021/11/20 11:47:30;;;;;;;36.55;26.27;;;10.60;99.90;;;;;;4932941;29;20490;-53
2021/11/20 11:49:59;;;;;;;36.20;27.88;;;10.60;99.90;;;;;;4932815;29;20486;-53
2021/11/20 11:52:27;;;;;;;38.42;28.23;;;10.60;99.90;;;;;;4932825;29;20043;-53
2021/11/20 11:55:18;;;;;;;37.75;27.48;;;10.60;99.90;;;;;;4972207;28;20074;-52
2021/11/20 11:58:05;;;;;;;36.47;27.55;;;10.60;99.90;;;;;;4992798;28;20043;-53
2021/11/20 12:00:55;;;;;;;40.72;28.73;;;10.60;99.90;;;;;;4992676;28;20484;-52
2021/11/20 12:03:29;;;;;;;35.58;25.58;;;10.60;99.90;;;;;;4992394;28;20034;-52
2021/11/20 12:06:15;;;;;;;37.00;28.25;;;10.60;99.90;;;;;;4992726;28;20045;-53
2021/11/20 12:08:50;;;;;;;38.00;27.20;;;10.60;99.90;;;;;;4992471;28;20042;-53
2021/11/20 12:11:28;;;;;;;37.75;28.15;;;10.60;99.90;;;;;;4992701;28;20042;-53
2021/11/20 12:14:18;;;;;;;38.80;28.83;;;10.60;99.90;;;;;;4992954;28;20456;-53
2021/11/20 12:16:46;;;;;;;38.92;29.08;;;10.60;99.90;;;;;;4992484;28;20072;-52
2021/11/20 12:19:39;;;;;;;41.67;28.38;;;10.60;99.90;;;;;;4992321;28;20141;-52
2021/11/20 12:22:05;;;;;;;37.63;26.90;;;10.60;99.90;;;;;;4992475;28;20041;-52
2021/11/20 12:24:42;;;;;;;41.30;30.08;;;10.60;99.90;;;;;;4992677;28;20042;-54
2021/11/20 12:27:37;;;;;;;39.65;28.35;;;10.60;99.90;;;;;;4992537;28;20096;-54
2021/11/20 12:30:49;;;;;;;39.30;28.70;;;10.60;99.90;;;;;;4992641;28;20053;-53
2021/11/20 12:33:33;;;;;;;41.30;29.88;;;10.60;99.90;;;;;;4992518;28;20038;-53
2021/11/20 12:36:34;;;;;;;41.88;28.45;;;10.60;99.90;;;;;;4992327;28;20117;-51
2021/11/20 12:39:33;;;;;;;35.78;27.45;;;10.60;99.90;;;;;;4951434;28;20118;-53
2021/11/20 12:42:45;;;;;;;36.90;26.15;;;10.60;99.90;;;;;;4951362;29;20429;-51
2021/11/20 12:45:42;;;;;;;41.88;28.17;;;10.60;99.90;;;;;;4894571;29;20044;-53
2021/11/20 12:48:40;;;;;;;39.58;28.23;;;10.60;99.90;;;;;;4897391;29;20158;-52
2021/11/20 12:51:26;;;;;;;39.10;27.42;;;10.60;99.90;;;;;;4898209;29;20063;-53
2021/11/20 12:53:57;;;;;;;41.42;27.10;;;10.60;99.90;;;;;;4882461;29;20057;-52